Weather at Niš Military Hospital Heliport

Public forecast

Using degrees Celsius for public forecast. Weather courtesy of forecast.io.

Closest aviation weather report (METAR) to Niš Military Hospital Heliport

Closest report is Niš Constantine the Great Airport, 3.2 nm (5.9 km) WNW.

2024/05/20 17:30 (retrieved 16 minutes ago)

LYNI 201730Z 06009KT 020V080 CAVOK 22/16 Q1013 NOSIG

Closest aviation forecast (TAF) to Niš Military Hospital Heliport

Closest forecast is Niš Constantine the Great Airport, 3.2 nm (5.9 km) WNW.

2024/05/20 12:21 (retrieved 5 hours ago)

TAF LYNI 201100Z 2012/2112 10006KT 9999 SCT030 TX25/2014Z TN15/2103Z TEMPO 2107/2112 12016KT